Terminal Aerodrome Forecast
Issued by NWS

Home | Current Version | Previous Version | Text Only | Print | Product List | Glossary On
Versions: 1 2 3 4 5 6 7 8 9 10 11 12 13 14 15 16 17 18 19 20 21 22 23 24 25
000
FTUS43 KIND 191415 AAA
TAFLAF
TAF AMD
KLAF 191415Z 1914/2012 11006KT P6SM OVC045
      TEMPO 1914/1916 4SM BR
     FM192100 11005KT P6SM VCSH OVC070
     FM192300 10006KT 4SM -SHRA OVC035
     FM200000 09006KT 4SM SHRA OVC025
     FM200100 10006KT 3SM SHRA OVC015
     FM200300 10007KT 1 1/2SM SHRA OVC008
     FM200900 VRB03KT 1 1/2SM SHRA OVC003=

USA.gov is the U.S. government's official web portal to all federal, state and local government web resources and services.